sensor_id;sensor_type;location;lat;lon;timestamp;pressure;altitude;pressure_sealevel;temperature;humidity
18533;BME280;9396;51.510;11.934;2023-04-27T00:01:14;100702.41;;;3.95;86.15
18533;BME280;9396;51.510;11.934;2023-04-27T00:03:41;100843.66;;;4.59;86.84
18533;BME280;9396;51.510;11.934;2023-04-27T00:06:09;100851.13;;;4.65;87.09
18533;BME280;9396;51.510;11.934;2023-04-27T00:08:36;100836.91;;;4.80;87.18
18533;BME280;9396;51.510;11.934;2023-04-27T00:11:04;100835.13;;;4.93;86.79
18533;BME280;9396;51.510;11.934;2023-04-27T00:13:31;100834.03;;;4.95;86.82
18533;BME280;9396;51.510;11.934;2023-04-27T00:15:59;100834.78;;;4.97;86.66
18533;BME280;9396;51.510;11.934;2023-04-27T00:18:28;100829.19;;;5.02;86.70
18533;BME280;9396;51.510;11.934;2023-04-27T00:20:54;100825.81;;;5.00;86.41
18533;BME280;9396;51.510;11.934;2023-04-27T00:23:21;100831.41;;;4.95;86.38
18533;BME280;9396;51.510;11.934;2023-04-27T00:25:48;100823.84;;;4.91;86.54
18533;BME280;9396;51.510;11.934;2023-04-27T00:28:16;100831.13;;;4.75;86.40
18533;BME280;9396;51.510;11.934;2023-04-27T00:30:42;100833.88;;;4.73;86.50
18533;BME280;9396;51.510;11.934;2023-04-27T00:33:09;100837.53;;;4.58;86.71
18533;BME280;9396;51.510;11.934;2023-04-27T00:35:36;100837.75;;;4.55;86.96
18533;BME280;9396;51.510;11.934;2023-04-27T00:38:02;100828.88;;;4.44;86.87
18533;BME280;9396;51.510;11.934;2023-04-27T00:40:29;100839.22;;;4.34;87.38
18533;BME280;9396;51.510;11.934;2023-04-27T00:42:56;100833.66;;;3.99;87.68
18533;BME280;9396;51.510;11.934;2023-04-27T00:45:24;100830.66;;;4.05;88.48
18533;BME280;9396;51.510;11.934;2023-04-27T00:47:50;100842.22;;;4.03;88.41
18533;BME280;9396;51.510;11.934;2023-04-27T00:50:25;100841.56;;;3.99;88.72
18533;BME280;9396;51.510;11.934;2023-04-27T00:52:52;100845.59;;;4.05;88.83
18533;BME280;9396;51.510;11.934;2023-04-27T00:55:19;100846.00;;;4.11;88.86
18533;BME280;9396;51.510;11.934;2023-04-27T00:57:46;100844.00;;;4.15;89.09
18533;BME280;9396;51.510;11.934;2023-04-27T01:00:13;100784.50;;;3.87;88.91
18533;BME280;9396;51.510;11.934;2023-04-27T01:02:41;100842.25;;;4.15;88.54
18533;BME280;9396;51.510;11.934;2023-04-27T01:05:09;100852.91;;;4.26;88.82
18533;BME280;9396;51.510;11.934;2023-04-27T01:07:36;100855.84;;;4.34;88.74
18533;BME280;9396;51.510;11.934;2023-04-27T01:10:04;100851.19;;;4.25;88.52
18533;BME280;9396;51.510;11.934;2023-04-27T01:12:31;100853.66;;;4.28;88.57
18533;BME280;9396;51.510;11.934;2023-04-27T01:14:58;100853.81;;;4.25;88.52
18533;BME280;9396;51.510;11.934;2023-04-27T01:17:24;100852.22;;;4.10;88.54
18533;BME280;9396;51.510;11.934;2023-04-27T01:19:52;100860.00;;;3.99;88.46
18533;BME280;9396;51.510;11.934;2023-04-27T01:22:21;100851.19;;;4.13;88.39
18533;BME280;9396;51.510;11.934;2023-04-27T01:24:49;100853.41;;;4.19;88.68
18533;BME280;9396;51.510;11.934;2023-04-27T01:27:16;100859.00;;;4.14;88.37
18533;BME280;9396;51.510;11.934;2023-04-27T01:29:42;100853.72;;;4.14;88.29
18533;BME280;9396;51.510;11.934;2023-04-27T01:32:09;100856.97;;;4.05;88.28
18533;BME280;9396;51.510;11.934;2023-04-27T01:34:36;100858.84;;;4.03;88.25
18533;BME280;9396;51.510;11.934;2023-04-27T01:37:03;100862.84;;;3.96;88.70
18533;BME280;9396;51.510;11.934;2023-04-27T01:39:30;100860.53;;;4.04;88.47
18533;BME280;9396;51.510;11.934;2023-04-27T01:41:58;100858.03;;;4.15;88.61
18533;BME280;9396;51.510;11.934;2023-04-27T01:44:24;100862.16;;;4.19;88.46
18533;BME280;9396;51.510;11.934;2023-04-27T01:46:51;100864.53;;;4.10;88.30
18533;BME280;9396;51.510;11.934;2023-04-27T01:49:17;100863.28;;;4.15;87.84
18533;BME280;9396;51.510;11.934;2023-04-27T01:51:44;100858.16;;;4.26;88.08
18533;BME280;9396;51.510;11.934;2023-04-27T01:54:11;100866.69;;;4.30;88.04
18533;BME280;9396;51.510;11.934;2023-04-27T01:56:37;100870.91;;;4.20;87.75
18533;BME280;9396;51.510;11.934;2023-04-27T01:59:05;100864.75;;;4.07;87.70
18533;BME280;9396;51.510;11.934;2023-04-27T02:01:32;100861.47;;;4.03;88.16
18533;BME280;9396;51.510;11.934;2023-04-27T02:03:58;100869.91;;;4.08;88.46
18533;BME280;9396;51.510;11.934;2023-04-27T02:06:25;100870.44;;;4.13;87.98
18533;BME280;9396;51.510;11.934;2023-04-27T02:08:52;100873.53;;;4.20;87.89
18533;BME280;9396;51.510;11.934;2023-04-27T02:11:18;100877.72;;;4.22;88.00
18533;BME280;9396;51.510;11.934;2023-04-27T02:13:45;100877.41;;;4.14;87.81
18533;BME280;9396;51.510;11.934;2023-04-27T02:16:14;100878.88;;;4.18;87.76
18533;BME280;9396;51.510;11.934;2023-04-27T02:18:41;100882.94;;;3.97;87.31
18533;BME280;9396;51.510;11.934;2023-04-27T02:21:08;100879.69;;;4.06;87.51
18533;BME280;9396;51.510;11.934;2023-04-27T02:23:35;100883.38;;;4.04;87.98
18533;BME280;9396;51.510;11.934;2023-04-27T02:26:01;100885.78;;;3.94;88.07
18533;BME280;9396;51.510;11.934;2023-04-27T02:28:28;100895.38;;;4.08;88.26
18533;BME280;9396;51.510;11.934;2023-04-27T02:30:55;100902.03;;;4.13;88.00
18533;BME280;9396;51.510;11.934;2023-04-27T02:33:23;100892.53;;;3.98;87.83
18533;BME280;9396;51.510;11.934;2023-04-27T02:35:49;100891.63;;;3.85;87.84
18533;BME280;9396;51.510;11.934;2023-04-27T02:38:16;100896.03;;;3.85;87.71
18533;BME280;9396;51.510;11.934;2023-04-27T02:40:42;100895.00;;;3.87;88.23
18533;BME280;9396;51.510;11.934;2023-04-27T02:43:09;100891.88;;;3.95;87.94
18533;BME280;9396;51.510;11.934;2023-04-27T02:45:36;100901.72;;;4.05;87.78
18533;BME280;9396;51.510;11.934;2023-04-27T02:48:03;100901.56;;;3.94;87.63
18533;BME280;9396;51.510;11.934;2023-04-27T02:50:31;100906.31;;;4.02;87.90
18533;BME280;9396;51.510;11.934;2023-04-27T02:52:58;100909.72;;;4.04;87.42
18533;BME280;9396;51.510;11.934;2023-04-27T02:55:25;100908.75;;;4.05;87.90
18533;BME280;9396;51.510;11.934;2023-04-27T02:57:51;100911.28;;;4.06;87.41
18533;BME280;9396;51.510;11.934;2023-04-27T03:00:18;100918.88;;;4.11;87.83
18533;BME280;9396;51.510;11.934;2023-04-27T03:02:45;100909.09;;;3.86;87.35
18533;BME280;9396;51.510;11.934;2023-04-27T03:05:11;100912.88;;;3.82;87.31
18533;BME280;9396;51.510;11.934;2023-04-27T03:07:39;100923.47;;;3.95;88.24
18533;BME280;9396;51.510;11.934;2023-04-27T03:10:07;100915.47;;;3.96;87.93
18533;BME280;9396;51.510;11.934;2023-04-27T03:12:33;100912.97;;;4.07;87.83
18533;BME280;9396;51.510;11.934;2023-04-27T03:15:00;100920.50;;;3.99;88.00
18533;BME280;9396;51.510;11.934;2023-04-27T03:17:27;100922.00;;;4.03;88.18
18533;BME280;9396;51.510;11.934;2023-04-27T03:19:53;100924.78;;;4.14;88.37
18533;BME280;9396;51.510;11.934;2023-04-27T03:22:20;100925.19;;;4.08;88.20
18533;BME280;9396;51.510;11.934;2023-04-27T03:24:48;100921.31;;;4.14;88.00
18533;BME280;9396;51.510;11.934;2023-04-27T03:27:15;100917.81;;;4.13;87.58
18533;BME280;9396;51.510;11.934;2023-04-27T03:29:41;100914.22;;;4.02;87.64
18533;BME280;9396;51.510;11.934;2023-04-27T03:32:08;100918.31;;;4.06;87.48
18533;BME280;9396;51.510;11.934;2023-04-27T03:34:34;100920.13;;;4.05;87.56
18533;BME280;9396;51.510;11.934;2023-04-27T03:37:01;100923.69;;;4.04;87.39
18533;BME280;9396;51.510;11.934;2023-04-27T03:39:28;100932.94;;;3.97;87.91
18533;BME280;9396;51.510;11.934;2023-04-27T03:41:56;100928.31;;;4.01;87.65
18533;BME280;9396;51.510;11.934;2023-04-27T03:44:23;100938.44;;;4.07;87.48
18533;BME280;9396;51.510;11.934;2023-04-27T03:46:50;100945.91;;;4.00;87.28
18533;BME280;9396;51.510;11.934;2023-04-27T03:49:16;100948.53;;;4.00;87.55
18533;BME280;9396;51.510;11.934;2023-04-27T03:51:43;100945.50;;;4.06;87.77
18533;BME280;9396;51.510;11.934;2023-04-27T03:54:09;100832.06;;;3.31;87.85
18533;BME280;9396;51.510;11.934;2023-04-27T03:56:36;100947.97;;;3.95;88.12
18533;BME280;9396;51.510;11.934;2023-04-27T03:59:04;100957.94;;;3.90;87.89
18533;BME280;9396;51.510;11.934;2023-04-27T04:01:31;100943.09;;;3.63;88.46
18533;BME280;9396;51.510;11.934;2023-04-27T04:03:58;100957.13;;;3.76;88.95
18533;BME280;9396;51.510;11.934;2023-04-27T04:06:25;100961.72;;;3.86;88.86
18533;BME280;9396;51.510;11.934;2023-04-27T04:08:52;100965.97;;;3.75;89.36
18533;BME280;9396;51.510;11.934;2023-04-27T04:11:19;100958.09;;;3.61;90.02
18533;BME280;9396;51.510;11.934;2023-04-27T04:13:45;100952.75;;;3.62;89.86
18533;BME280;9396;51.510;11.934;2023-04-27T04:16:14;100957.53;;;3.70;89.68
18533;BME280;9396;51.510;11.934;2023-04-27T04:18:40;100959.59;;;3.79;89.91
18533;BME280;9396;51.510;11.934;2023-04-27T04:21:08;100962.63;;;3.99;90.39
18533;BME280;9396;51.510;11.934;2023-04-27T04:23:35;100946.13;;;4.10;89.92
18533;BME280;9396;51.510;11.934;2023-04-27T04:26:02;100956.22;;;4.30;89.94
18533;BME280;9396;51.510;11.934;2023-04-27T04:28:29;100955.50;;;4.41;89.86
18533;BME280;9396;51.510;11.934;2023-04-27T04:30:56;100962.78;;;4.37;89.34
18533;BME280;9396;51.510;11.934;2023-04-27T04:33:24;100956.50;;;4.25;89.26
18533;BME280;9396;51.510;11.934;2023-04-27T04:35:51;100955.53;;;4.14;89.27
18533;BME280;9396;51.510;11.934;2023-04-27T04:38:18;100958.00;;;4.29;89.36
18533;BME280;9396;51.510;11.934;2023-04-27T04:40:45;100955.19;;;4.45;89.64
18533;BME280;9396;51.510;11.934;2023-04-27T04:43:12;100950.16;;;4.55;89.43
18533;BME280;9396;51.510;11.934;2023-04-27T04:45:38;100958.97;;;4.68;89.85
18533;BME280;9396;51.510;11.934;2023-04-27T04:48:05;100964.34;;;4.79;89.18
18533;BME280;9396;51.510;11.934;2023-04-27T04:50:34;100971.72;;;4.86;89.34
18533;BME280;9396;51.510;11.934;2023-04-27T04:53:01;100959.91;;;4.92;89.31
18533;BME280;9396;51.510;11.934;2023-04-27T04:55:27;100955.50;;;4.92;88.43
18533;BME280;9396;51.510;11.934;2023-04-27T04:57:54;100960.13;;;4.89;88.15
18533;BME280;9396;51.510;11.934;2023-04-27T05:00:21;100965.28;;;4.78;87.87
18533;BME280;9396;51.510;11.934;2023-04-27T05:02:47;100956.00;;;4.85;87.75
18533;BME280;9396;51.510;11.934;2023-04-27T05:05:14;100949.38;;;4.92;88.03
18533;BME280;9396;51.510;11.934;2023-04-27T05:07:42;100956.34;;;4.93;87.97
18533;BME280;9396;51.510;11.934;2023-04-27T05:10:09;100956.34;;;4.80;87.59
18533;BME280;9396;51.510;11.934;2023-04-27T05:12:36;100955.72;;;4.89;88.29
18533;BME280;9396;51.510;11.934;2023-04-27T05:15:03;100958.44;;;5.00;88.17
18533;BME280;9396;51.510;11.934;2023-04-27T05:17:29;100964.06;;;5.08;88.54
18533;BME280;9396;51.510;11.934;2023-04-27T05:19:56;100958.16;;;5.17;88.48
18533;BME280;9396;51.510;11.934;2023-04-27T05:22:23;100965.22;;;5.17;88.86
18533;BME280;9396;51.510;11.934;2023-04-27T05:24:51;100970.06;;;5.23;88.55
18533;BME280;9396;51.510;11.934;2023-04-27T05:27:17;100963.19;;;5.33;87.40
18533;BME280;9396;51.510;11.934;2023-04-27T05:29:44;100969.84;;;5.38;87.01
18533;BME280;9396;51.510;11.934;2023-04-27T05:32:11;100968.56;;;5.44;86.51
18533;BME280;9396;51.510;11.934;2023-04-27T05:34:37;100961.91;;;5.51;86.47
18533;BME280;9396;51.510;11.934;2023-04-27T05:37:05;100960.31;;;5.61;87.08
18533;BME280;9396;51.510;11.934;2023-04-27T05:39:31;100967.69;;;5.69;87.22
18533;BME280;9396;51.510;11.934;2023-04-27T05:41:59;100967.66;;;5.81;87.20
18533;BME280;9396;51.510;11.934;2023-04-27T05:44:27;100971.56;;;5.88;86.98
18533;BME280;9396;51.510;11.934;2023-04-27T05:46:54;100980.50;;;5.98;86.96
18533;BME280;9396;51.510;11.934;2023-04-27T05:49:21;100982.59;;;6.06;86.88
18533;BME280;9396;51.510;11.934;2023-04-27T05:51:48;100979.66;;;6.10;85.85
18533;BME280;9396;51.510;11.934;2023-04-27T05:54:14;100980.47;;;6.11;86.54
18533;BME280;9396;51.510;11.934;2023-04-27T05:56:41;100973.91;;;6.16;85.75
18533;BME280;9396;51.510;11.934;2023-04-27T05:59:09;100983.69;;;6.27;85.48
18533;BME280;9396;51.510;11.934;2023-04-27T06:01:36;100971.13;;;6.18;84.50
18533;BME280;9396;51.510;11.934;2023-04-27T06:04:03;100975.06;;;6.36;84.00
18533;BME280;9396;51.510;11.934;2023-04-27T06:06:30;100977.78;;;6.47;83.70
18533;BME280;9396;51.510;11.934;2023-04-27T06:08:58;100979.38;;;6.61;84.73
18533;BME280;9396;51.510;11.934;2023-04-27T06:11:24;100987.22;;;6.62;84.66
18533;BME280;9396;51.510;11.934;2023-04-27T06:13:51;100988.66;;;6.66;85.42
18533;BME280;9396;51.510;11.934;2023-04-27T06:16:19;100982.44;;;6.78;85.33
18533;BME280;9396;51.510;11.934;2023-04-27T06:18:47;100980.81;;;6.88;85.19
18533;BME280;9396;51.510;11.934;2023-04-27T06:21:13;100990.00;;;6.72;85.61
18533;BME280;9396;51.510;11.934;2023-04-27T06:23:40;100995.41;;;6.70;85.26
18533;BME280;9396;51.510;11.934;2023-04-27T06:26:07;100993.06;;;6.31;87.65
18533;BME280;9396;51.510;11.934;2023-04-27T06:28:33;100995.03;;;6.64;87.94
18533;BME280;9396;51.510;11.934;2023-04-27T06:31:00;100992.66;;;6.72;86.75
18533;BME280;9396;51.510;11.934;2023-04-27T06:33:28;100996.94;;;6.62;87.26
18533;BME280;9396;51.510;11.934;2023-04-27T06:35:55;100998.84;;;6.60;86.41
18533;BME280;9396;51.510;11.934;2023-04-27T06:38:21;101006.59;;;6.39;87.79
18533;BME280;9396;51.510;11.934;2023-04-27T06:40:49;101012.63;;;6.52;87.29
18533;BME280;9396;51.510;11.934;2023-04-27T06:43:16;101013.03;;;6.59;86.78
18533;BME280;9396;51.510;11.934;2023-04-27T06:45:43;101010.75;;;6.89;86.59
18533;BME280;9396;51.510;11.934;2023-04-27T06:48:10;101001.03;;;7.00;86.38
18533;BME280;9396;51.510;11.934;2023-04-27T06:50:38;101007.22;;;6.77;86.99
18533;BME280;9396;51.510;11.934;2023-04-27T06:53:05;101005.94;;;6.94;88.38
18533;BME280;9396;51.510;11.934;2023-04-27T06:55:32;101010.47;;;7.26;87.92
18533;BME280;9396;51.510;11.934;2023-04-27T06:57:59;101002.31;;;7.51;86.42
18533;BME280;9396;51.510;11.934;2023-04-27T07:00:26;101007.25;;;7.45;87.88
18533;BME280;9396;51.510;11.934;2023-04-27T07:02:52;101008.47;;;7.63;88.29
18533;BME280;9396;51.510;11.934;2023-04-27T07:05:19;101007.72;;;7.50;86.60
18533;BME280;9396;51.510;11.934;2023-04-27T07:07:47;101010.13;;;7.64;87.27
18533;BME280;9396;51.510;11.934;2023-04-27T07:10:14;101007.13;;;7.91;86.99
18533;BME280;9396;51.510;11.934;2023-04-27T07:12:41;101008.44;;;8.07;86.51
18533;BME280;9396;51.510;11.934;2023-04-27T07:15:08;101011.78;;;8.20;85.24
18533;BME280;9396;51.510;11.934;2023-04-27T07:17:35;101018.03;;;8.30;85.15
18533;BME280;9396;51.510;11.934;2023-04-27T07:20:02;101003.38;;;8.58;84.26
18533;BME280;9396;51.510;11.934;2023-04-27T07:22:30;101010.09;;;8.94;83.63
18533;BME280;9396;51.510;11.934;2023-04-27T07:24:58;101010.69;;;9.18;83.04
18533;BME280;9396;51.510;11.934;2023-04-27T07:27:25;101010.16;;;9.44;81.99
18533;BME280;9396;51.510;11.934;2023-04-27T07:29:51;101004.25;;;9.41;83.13
18533;BME280;9396;51.510;11.934;2023-04-27T07:32:19;101015.88;;;9.19;82.55
18533;BME280;9396;51.510;11.934;2023-04-27T07:34:46;101010.41;;;9.21;84.05
18533;BME280;9396;51.510;11.934;2023-04-27T07:37:13;101019.50;;;9.18;84.27
18533;BME280;9396;51.510;11.934;2023-04-27T07:39:40;101019.81;;;9.25;85.41
18533;BME280;9396;51.510;11.934;2023-04-27T07:42:08;101021.63;;;9.04;83.69
18533;BME280;9396;51.510;11.934;2023-04-27T07:44:34;101024.84;;;9.28;85.41
18533;BME280;9396;51.510;11.934;2023-04-27T07:47:01;101024.84;;;9.48;83.98
18533;BME280;9396;51.510;11.934;2023-04-27T07:49:29;101017.28;;;9.74;83.33
18533;BME280;9396;51.510;11.934;2023-04-27T07:51:56;101031.69;;;9.81;80.63
18533;BME280;9396;51.510;11.934;2023-04-27T07:54:23;101025.94;;;9.76;79.59
18533;BME280;9396;51.510;11.934;2023-04-27T07:56:50;101031.63;;;9.92;79.96
18533;BME280;9396;51.510;11.934;2023-04-27T07:59:19;101032.22;;;10.05;81.22
18533;BME280;9396;51.510;11.934;2023-04-27T08:01:46;101033.41;;;10.12;83.00
18533;BME280;9396;51.510;11.934;2023-04-27T08:04:12;101028.59;;;10.06;81.06
18533;BME280;9396;51.510;11.934;2023-04-27T08:06:40;101037.44;;;9.86;82.18
18533;BME280;9396;51.510;11.934;2023-04-27T08:09:06;101035.59;;;10.07;82.56
18533;BME280;9396;51.510;11.934;2023-04-27T08:11:33;101031.47;;;10.24;82.15
18533;BME280;9396;51.510;11.934;2023-04-27T08:14:00;101031.25;;;10.55;80.42
18533;BME280;9396;51.510;11.934;2023-04-27T08:16:28;101022.28;;;10.75;79.52
18533;BME280;9396;51.510;11.934;2023-04-27T08:18:55;101030.03;;;10.78;77.22
18533;BME280;9396;51.510;11.934;2023-04-27T08:21:22;101025.09;;;11.12;79.15
18533;BME280;9396;51.510;11.934;2023-04-27T08:23:48;101023.69;;;11.08;78.18
18533;BME280;9396;51.510;11.934;2023-04-27T08:26:15;101025.91;;;11.13;77.09
18533;BME280;9396;51.510;11.934;2023-04-27T08:28:42;101014.56;;;11.30;76.21
18533;BME280;9396;51.510;11.934;2023-04-27T08:31:08;101010.44;;;11.45;78.02
18533;BME280;9396;51.510;11.934;2023-04-27T08:33:36;101011.81;;;11.58;73.69
18533;BME280;9396;51.510;11.934;2023-04-27T08:36:04;101000.09;;;11.88;75.09
18533;BME280;9396;51.510;11.934;2023-04-27T08:38:32;101011.84;;;12.22;76.52
18533;BME280;9396;51.510;11.934;2023-04-27T08:40:59;101001.09;;;11.87;71.26
18533;BME280;9396;51.510;11.934;2023-04-27T08:43:25;101013.75;;;11.01;71.11
18533;BME280;9396;51.510;11.934;2023-04-27T08:45:52;101013.16;;;11.16;73.99
18533;BME280;9396;51.510;11.934;2023-04-27T08:48:19;101004.84;;;11.38;73.72
18533;BME280;9396;51.510;11.934;2023-04-27T08:50:49;101003.50;;;11.15;73.97
18533;BME280;9396;51.510;11.934;2023-04-27T08:53:16;101014.47;;;10.84;71.74
18533;BME280;9396;51.510;11.934;2023-04-27T08:55:43;101008.00;;;10.96;72.83
18533;BME280;9396;51.510;11.934;2023-04-27T08:58:10;101006.88;;;11.08;71.69
18533;BME280;9396;51.510;11.934;2023-04-27T09:00:37;101005.63;;;11.02;76.12
18533;BME280;9396;51.510;11.934;2023-04-27T09:03:05;100994.50;;;11.26;71.98
18533;BME280;9396;51.510;11.934;2023-04-27T09:05:32;100999.91;;;11.53;75.12
18533;BME280;9396;51.510;11.934;2023-04-27T09:08:02;100996.25;;;11.54;70.30
18533;BME280;9396;51.510;11.934;2023-04-27T09:10:43;100995.44;;;11.90;72.85
18533;BME280;9396;51.510;11.934;2023-04-27T09:13:09;101000.31;;;11.95;72.74
18533;BME280;9396;51.510;11.934;2023-04-27T09:15:44;101000.31;;;11.67;70.26
18533;BME280;9396;51.510;11.934;2023-04-27T09:18:14;101005.66;;;11.48;71.04
18533;BME280;9396;51.510;11.934;2023-04-27T09:20:43;100997.78;;;11.66;73.50
18533;BME280;9396;51.510;11.934;2023-04-27T09:23:24;100996.00;;;11.57;72.70
18533;BME280;9396;51.510;11.934;2023-04-27T09:25:52;100997.03;;;11.37;72.65
18533;BME280;9396;51.510;11.934;2023-04-27T09:28:18;100996.69;;;11.49;69.93
18533;BME280;9396;51.510;11.934;2023-04-27T09:30:51;100988.50;;;11.70;71.01
18533;BME280;9396;51.510;11.934;2023-04-27T09:33:21;100983.91;;;11.99;69.02
18533;BME280;9396;51.510;11.934;2023-04-27T09:35:48;100987.16;;;11.47;69.55
18533;BME280;9396;51.510;11.934;2023-04-27T09:38:18;100984.13;;;11.78;71.58
18533;BME280;9396;51.510;11.934;2023-04-27T09:40:45;100986.75;;;11.88;70.74
18533;BME280;9396;51.510;11.934;2023-04-27T09:43:12;100984.78;;;11.90;69.94
18533;BME280;9396;51.510;11.934;2023-04-27T09:45:39;100990.75;;;11.74;70.64
18533;BME280;9396;51.510;11.934;2023-04-27T09:48:06;100976.19;;;11.59;69.37
18533;BME280;9396;51.510;11.934;2023-04-27T09:50:34;100980.72;;;11.49;68.56
18533;BME280;9396;51.510;11.934;2023-04-27T09:53:01;100981.13;;;11.54;67.32
18533;BME280;9396;51.510;11.934;2023-04-27T09:55:34;100979.31;;;11.45;70.25
18533;BME280;9396;51.510;11.934;2023-04-27T09:58:13;100976.88;;;11.25;69.88
18533;BME280;9396;51.510;11.934;2023-04-27T10:00:52;100970.22;;;11.38;69.70
18533;BME280;9396;51.510;11.934;2023-04-27T10:03:28;100973.53;;;11.04;68.59
18533;BME280;9396;51.510;11.934;2023-04-27T10:06:34;100977.19;;;10.93;70.41
18533;BME280;9396;51.510;11.934;2023-04-27T10:09:08;100970.88;;;11.04;70.49
18533;BME280;9396;51.510;11.934;2023-04-27T10:11:41;100973.25;;;10.88;69.93
18533;BME280;9396;51.510;11.934;2023-04-27T10:14:09;100965.38;;;11.15;71.25
18533;BME280;9396;51.510;11.934;2023-04-27T10:16:43;100966.66;;;11.11;70.41
18533;BME280;9396;51.510;11.934;2023-04-27T10:19:10;100979.09;;;11.20;70.85
18533;BME280;9396;51.510;11.934;2023-04-27T10:21:37;100979.41;;;11.17;71.50
18533;BME280;9396;51.510;11.934;2023-04-27T10:24:07;100971.78;;;11.31;73.43
18533;BME280;9396;51.510;11.934;2023-04-27T10:26:34;100964.97;;;11.56;71.86
18533;BME280;9396;51.510;11.934;2023-04-27T10:29:06;100965.81;;;11.93;73.74
18533;BME280;9396;51.510;11.934;2023-04-27T10:31:33;100954.38;;;12.10;69.33
18533;BME280;9396;51.510;11.934;2023-04-27T10:34:07;100955.97;;;12.21;68.51
18533;BME280;9396;51.510;11.934;2023-04-27T10:36:34;100963.19;;;12.11;64.73
18533;BME280;9396;51.510;11.934;2023-04-27T10:39:02;100957.09;;;12.01;67.02
18533;BME280;9396;51.510;11.934;2023-04-27T10:41:48;100959.38;;;12.13;69.01
18533;BME280;9396;51.510;11.934;2023-04-27T10:44:17;100963.19;;;12.11;66.93
18533;BME280;9396;51.510;11.934;2023-04-27T10:46:51;100959.09;;;11.89;68.98
18533;BME280;9396;51.510;11.934;2023-04-27T10:49:18;100967.25;;;11.88;66.92
18533;BME280;9396;51.510;11.934;2023-04-27T10:51:45;100966.13;;;11.90;68.60
18533;BME280;9396;51.510;11.934;2023-04-27T10:54:12;100964.69;;;11.96;69.94
18533;BME280;9396;51.510;11.934;2023-04-27T10:56:39;100964.78;;;12.04;74.04
18533;BME280;9396;51.510;11.934;2023-04-27T10:59:06;100964.78;;;12.04;69.07
18533;BME280;9396;51.510;11.934;2023-04-27T11:01:35;100967.19;;;12.24;72.10
18533;BME280;9396;51.510;11.934;2023-04-27T11:04:02;100965.59;;;12.31;72.02
18533;BME280;9396;51.510;11.934;2023-04-27T11:06:30;100862.31;;;11.89;68.35
18533;BME280;9396;51.510;11.934;2023-04-27T11:08:58;100965.13;;;12.36;64.84
18533;BME280;9396;51.510;11.934;2023-04-27T11:11:25;100965.81;;;12.20;69.27
18533;BME280;9396;51.510;11.934;2023-04-27T11:13:52;100964.88;;;12.12;67.07
18533;BME280;9396;51.510;11.934;2023-04-27T11:16:20;100961.31;;;12.21;69.19
18533;BME280;9396;51.510;11.934;2023-04-27T11:18:48;100964.41;;;12.16;69.40
18533;BME280;9396;51.510;11.934;2023-04-27T11:21:16;100962.31;;;12.37;70.92
18533;BME280;9396;51.510;11.934;2023-04-27T11:23:43;100956.53;;;12.59;65.24
18533;BME280;9396;51.510;11.934;2023-04-27T11:26:10;100954.97;;;12.74;68.76
18533;BME280;9396;51.510;11.934;2023-04-27T11:28:39;100964.59;;;12.32;63.32
18533;BME280;9396;51.510;11.934;2023-04-27T11:31:06;100954.22;;;12.47;65.16
18533;BME280;9396;51.510;11.934;2023-04-27T11:33:32;100960.53;;;12.28;65.64
18533;BME280;9396;51.510;11.934;2023-04-27T11:36:00;100957.81;;;12.38;67.59
18533;BME280;9396;51.510;11.934;2023-04-27T11:38:32;100961.81;;;12.07;64.91
18533;BME280;9396;51.510;11.934;2023-04-27T11:41:00;100959.97;;;12.07;67.94
18533;BME280;9396;51.510;11.934;2023-04-27T11:43:27;100965.31;;;12.07;66.23
18533;BME280;9396;51.510;11.934;2023-04-27T11:45:54;100967.34;;;12.23;66.68
18533;BME280;9396;51.510;11.934;2023-04-27T11:48:22;100962.88;;;11.96;65.20
18533;BME280;9396;51.510;11.934;2023-04-27T11:50:49;100961.47;;;11.92;65.34
18533;BME280;9396;51.510;11.934;2023-04-27T11:53:28;100962.47;;;11.54;64.66
18533;BME280;9396;51.510;11.934;2023-04-27T11:55:54;100960.16;;;11.32;63.24
18533;BME280;9396;51.510;11.934;2023-04-27T11:58:22;100959.34;;;11.59;67.02
18533;BME280;9396;51.510;11.934;2023-04-27T12:00:50;100954.25;;;11.75;68.71
18533;BME280;9396;51.510;11.934;2023-04-27T12:03:17;100954.75;;;11.88;66.85
18533;BME280;9396;51.510;11.934;2023-04-27T12:05:47;100949.69;;;12.12;67.73
18533;BME280;9396;51.510;11.934;2023-04-27T12:08:14;100956.41;;;12.16;66.84
18533;BME280;9396;51.510;11.934;2023-04-27T12:10:43;100955.91;;;12.30;69.23
18533;BME280;9396;51.510;11.934;2023-04-27T12:13:10;100953.28;;;12.03;62.31
18533;BME280;9396;51.510;11.934;2023-04-27T12:15:37;100951.38;;;11.96;65.43
18533;BME280;9396;51.510;11.934;2023-04-27T12:18:05;100961.38;;;12.11;66.46
18533;BME280;9396;51.510;11.934;2023-04-27T12:20:32;100949.56;;;12.14;65.46
18533;BME280;9396;51.510;11.934;2023-04-27T12:22:59;100947.28;;;12.19;62.96
18533;BME280;9396;51.510;11.934;2023-04-27T12:25:26;100951.69;;;12.10;63.04
18533;BME280;9396;51.510;11.934;2023-04-27T12:27:54;100952.53;;;12.28;68.44
18533;BME280;9396;51.510;11.934;2023-04-27T12:30:22;100947.69;;;12.41;62.15
18533;BME280;9396;51.510;11.934;2023-04-27T12:32:49;100944.25;;;12.49;64.93
18533;BME280;9396;51.510;11.934;2023-04-27T12:35:16;100954.59;;;12.52;66.04
18533;BME280;9396;51.510;11.934;2023-04-27T12:37:42;100949.94;;;12.71;70.38
18533;BME280;9396;51.510;11.934;2023-04-27T12:40:10;100951.09;;;12.51;61.47
18533;BME280;9396;51.510;11.934;2023-04-27T12:42:37;100942.28;;;12.51;67.28
18533;BME280;9396;51.510;11.934;2023-04-27T12:45:06;100945.31;;;12.56;65.34
18533;BME280;9396;51.510;11.934;2023-04-27T12:47:34;100944.78;;;12.52;62.22
18533;BME280;9396;51.510;11.934;2023-04-27T12:50:00;100937.22;;;12.30;63.63
18533;BME280;9396;51.510;11.934;2023-04-27T12:52:28;100935.09;;;12.51;66.64
18533;BME280;9396;51.510;11.934;2023-04-27T12:54:54;100938.88;;;12.84;72.30
18533;BME280;9396;51.510;11.934;2023-04-27T12:57:23;100941.47;;;12.93;68.18